createdAt,value
2018-09-25T00:00:10.783Z,11.30
2018-09-25T00:02:44.648Z,11.30
2018-09-25T00:05:18.403Z,11.30
2018-09-25T00:07:52.213Z,11.20
2018-09-25T00:10:26.165Z,11.20
2018-09-25T00:12:59.796Z,11.20
2018-09-25T00:15:33.617Z,11.20
2018-09-25T00:18:07.354Z,11.10
2018-09-25T00:20:41.246Z,11.10
2018-09-25T00:23:14.954Z,11.10
2018-09-25T00:25:48.942Z,11.10
2018-09-25T00:28:22.640Z,11.10
2018-09-25T00:30:56.399Z,11.00
2018-09-25T00:33:30.221Z,11.00
2018-09-25T00:36:03.910Z,11.00
2018-09-25T00:38:37.537Z,10.90
2018-09-25T00:41:11.283Z,10.90
2018-09-25T00:43:45.145Z,10.90
2018-09-25T00:46:18.986Z,10.90
2018-09-25T00:48:52.769Z,10.80
2018-09-25T00:51:26.470Z,10.80
2018-09-25T00:54:00.229Z,10.80
2018-09-25T00:56:33.929Z,10.70
2018-09-25T00:59:07.641Z,10.70
2018-09-25T01:01:41.279Z,10.70
2018-09-25T01:04:15.063Z,10.70
2018-09-25T01:06:49.083Z,10.60
2018-09-25T01:09:22.914Z,10.60
2018-09-25T01:11:56.701Z,10.60
2018-09-25T01:14:30.822Z,10.60
2018-09-25T01:17:04.606Z,10.50
2018-09-25T01:19:38.450Z,10.50
2018-09-25T01:22:12.147Z,10.50
2018-09-25T01:24:45.855Z,10.50
2018-09-25T01:27:19.614Z,10.40
2018-09-25T01:29:53.444Z,10.40
2018-09-25T01:32:27.215Z,10.40
2018-09-25T01:35:00.953Z,10.30
2018-09-25T01:37:34.585Z,10.30
2018-09-25T01:40:08.349Z,10.30
2018-09-25T01:42:42.238Z,10.30
2018-09-25T01:45:15.959Z,10.20
2018-09-25T01:47:49.701Z,10.20
2018-09-25T01:50:23.492Z,10.20
2018-09-25T01:52:57.230Z,10.20
2018-09-25T01:55:30.974Z,10.20
2018-09-25T01:58:04.720Z,10.10
2018-09-25T02:00:38.542Z,10.10
2018-09-25T02:03:12.495Z,10.10
2018-09-25T02:05:46.306Z,10.10
2018-09-25T02:08:20.246Z,10.00
2018-09-25T02:10:54.027Z,10.00
2018-09-25T02:13:27.774Z,10.00
2018-09-25T02:16:01.564Z,10.00
2018-09-25T02:18:35.336Z,10.00
2018-09-25T02:21:09.107Z,10.00
2018-09-25T02:23:42.822Z,9.90
2018-09-25T02:26:16.641Z,10.00
2018-09-25T02:28:50.390Z,9.90
2018-09-25T02:31:24.058Z,9.90
2018-09-25T02:33:57.804Z,9.90
2018-09-25T02:36:31.458Z,9.90
2018-09-25T02:39:05.399Z,9.90
2018-09-25T02:41:39.074Z,9.80
2018-09-25T02:44:12.958Z,9.80
2018-09-25T02:46:46.814Z,9.80
2018-09-25T02:49:20.506Z,9.80
2018-09-25T02:51:54.234Z,9.70
2018-09-25T02:54:27.994Z,9.70
2018-09-25T02:57:01.694Z,9.70
2018-09-25T02:59:35.391Z,9.60
2018-09-25T03:02:09.200Z,9.60
2018-09-25T03:04:42.894Z,9.60
2018-09-25T03:07:16.721Z,9.60
2018-09-25T03:09:50.612Z,9.50
2018-09-25T03:12:24.318Z,9.50
2018-09-25T03:14:58.153Z,9.50
2018-09-25T03:17:31.854Z,9.40
2018-09-25T03:20:05.818Z,9.40
2018-09-25T03:22:46.457Z,9.40
2018-09-25T03:25:20.243Z,9.40
2018-09-25T03:27:54.038Z,9.40
2018-09-25T03:30:27.841Z,9.40
2018-09-25T03:33:01.669Z,9.40
2018-09-25T03:35:35.530Z,9.30
2018-09-25T03:38:09.251Z,9.30
2018-09-25T03:40:42.955Z,9.30
2018-09-25T03:43:16.630Z,9.30
2018-09-25T03:45:50.483Z,9.20
2018-09-25T03:48:24.147Z,9.20
2018-09-25T03:50:57.738Z,9.20
2018-09-25T03:53:31.508Z,9.20
2018-09-25T03:56:05.302Z,9.20
2018-09-25T03:58:39.155Z,9.20
2018-09-25T04:01:19.741Z,9.10
2018-09-25T04:03:53.538Z,9.20
2018-09-25T04:06:27.219Z,9.10
2018-09-25T04:09:00.826Z,9.10
2018-09-25T04:11:34.686Z,9.10
2018-09-25T04:14:08.418Z,9.10
2018-09-25T04:16:42.101Z,9.00
2018-09-25T04:19:15.745Z,9.00
2018-09-25T04:21:49.371Z,9.00
2018-09-25T04:24:22.991Z,9.00
2018-09-25T04:26:56.751Z,8.90
2018-09-25T04:29:30.451Z,9.00
2018-09-25T04:32:04.170Z,8.90
2018-09-25T04:34:37.993Z,8.90
2018-09-25T04:37:11.836Z,8.90
2018-09-25T04:39:45.477Z,8.90
2018-09-25T04:42:19.285Z,8.90
2018-09-25T04:44:52.948Z,8.80
2018-09-25T04:47:26.748Z,8.80
2018-09-25T04:50:00.690Z,8.80
2018-09-25T04:52:34.493Z,8.80
2018-09-25T04:55:08.217Z,8.80
2018-09-25T04:57:41.983Z,8.70
2018-09-25T05:00:15.798Z,8.70
2018-09-25T05:02:49.569Z,8.70
2018-09-25T05:05:23.226Z,8.70
2018-09-25T05:07:57.046Z,8.70
2018-09-25T05:10:30.825Z,8.70
2018-09-25T05:13:04.539Z,8.60
2018-09-25T05:15:38.313Z,8.60
2018-09-25T05:18:12.285Z,8.60
2018-09-25T05:20:46.074Z,8.60
2018-09-25T05:23:19.953Z,8.60
2018-09-25T05:25:53.618Z,8.60
2018-09-25T05:28:27.369Z,8.60
2018-09-25T05:31:01.049Z,8.60
2018-09-25T05:33:34.688Z,8.60
2018-09-25T05:36:08.366Z,8.60
2018-09-25T05:38:42.234Z,8.60
2018-09-25T05:41:16.500Z,8.60
2018-09-25T05:43:50.310Z,8.60
2018-09-25T05:46:23.997Z,8.50
2018-09-25T05:48:57.883Z,8.50
2018-09-25T05:51:31.610Z,8.50
2018-09-25T05:54:05.454Z,8.50
2018-09-25T05:56:39.646Z,8.50
2018-09-25T05:59:14.425Z,8.50
2018-09-25T06:01:48.163Z,8.50
2018-09-25T06:04:22.493Z,8.50
2018-09-25T06:06:56.423Z,8.60
2018-09-25T06:09:30.272Z,8.70
2018-09-25T06:12:04.095Z,8.60
2018-09-25T06:14:41.813Z,8.70
2018-09-25T06:17:15.723Z,8.70
2018-09-25T06:19:50.470Z,8.80
2018-09-25T06:22:25.405Z,8.80
2018-09-25T06:24:59.669Z,8.90
2018-09-25T06:27:34.131Z,8.90
2018-09-25T06:30:07.825Z,9.00
2018-09-25T06:32:41.598Z,9.00
2018-09-25T06:35:15.407Z,9.10
2018-09-25T06:37:49.117Z,9.10
2018-09-25T06:40:23.575Z,9.20
2018-09-25T06:42:57.402Z,9.20
2018-09-25T06:45:31.142Z,9.20
2018-09-25T06:48:04.817Z,9.30
2018-09-25T06:50:38.614Z,9.30
2018-09-25T06:53:12.420Z,9.40
2018-09-25T06:55:46.233Z,9.50
2018-09-25T06:58:19.979Z,9.60
2018-09-25T07:00:53.835Z,9.60
2018-09-25T07:03:27.553Z,9.70
2018-09-25T07:06:01.365Z,9.70
2018-09-25T07:08:35.211Z,9.80
2018-09-25T07:11:08.926Z,9.90
2018-09-25T07:13:42.665Z,9.90
2018-09-25T07:16:16.413Z,10.10
2018-09-25T07:18:50.120Z,10.10
2018-09-25T07:21:23.885Z,10.20
2018-09-25T07:23:57.615Z,10.30
2018-09-25T07:26:31.414Z,10.40
2018-09-25T07:29:05.186Z,10.50
2018-09-25T07:31:39.051Z,10.50
2018-09-25T07:34:12.992Z,10.60
2018-09-25T07:36:46.819Z,10.60
2018-09-25T07:39:20.456Z,10.70
2018-09-25T07:41:54.159Z,10.80
2018-09-25T07:44:27.864Z,10.80
2018-09-25T07:47:01.768Z,10.80
2018-09-25T07:49:35.485Z,10.90
2018-09-25T07:52:09.237Z,11.00
2018-09-25T07:54:42.872Z,11.10
2018-09-25T07:57:16.664Z,11.10
2018-09-25T07:59:50.593Z,11.20
2018-09-25T08:02:24.401Z,11.20
2018-09-25T08:04:58.139Z,11.20
2018-09-25T08:07:31.973Z,11.30
2018-09-25T08:10:05.673Z,11.30
2018-09-25T08:12:39.389Z,11.40
2018-09-25T08:15:13.269Z,11.50
2018-09-25T08:17:46.954Z,11.50
2018-09-25T08:20:20.698Z,11.60
2018-09-25T08:22:54.410Z,11.60
2018-09-25T08:25:28.211Z,11.70
2018-09-25T08:28:01.922Z,11.70
2018-09-25T08:30:35.665Z,11.80
2018-09-25T08:33:09.399Z,11.90
2018-09-25T08:35:43.101Z,12.00
2018-09-25T08:38:16.962Z,12.10
2018-09-25T08:40:50.731Z,12.20
2018-09-25T08:43:24.438Z,12.30
2018-09-25T08:45:58.393Z,12.40
2018-09-25T08:48:32.278Z,12.50
2018-09-25T08:51:05.953Z,12.60
2018-09-25T08:53:39.904Z,12.70
2018-09-25T08:56:13.569Z,12.70
2018-09-25T08:58:47.283Z,12.80
2018-09-25T09:01:21.283Z,12.90
2018-09-25T09:03:54.995Z,13.00
2018-09-25T09:06:28.853Z,13.10
2018-09-25T09:09:02.596Z,13.20
2018-09-25T09:11:36.318Z,13.30
2018-09-25T09:14:10.093Z,13.40
2018-09-25T09:16:43.987Z,13.50
2018-09-25T09:19:17.828Z,13.60
2018-09-25T09:21:51.589Z,13.60
2018-09-25T09:24:25.385Z,13.70
2018-09-25T09:26:59.130Z,13.80
2018-09-25T09:29:33.482Z,13.80
2018-09-25T09:32:07.301Z,13.90
2018-09-25T09:34:41.004Z,14.00
2018-09-25T09:37:15.119Z,14.10
2018-09-25T09:39:48.907Z,14.10
2018-09-25T09:42:22.613Z,14.20
2018-09-25T09:44:56.378Z,14.30
2018-09-25T09:47:30.306Z,14.30
2018-09-25T09:50:04.240Z,14.30
2018-09-25T09:52:37.986Z,14.40
2018-09-25T09:55:11.697Z,14.50
2018-09-25T09:57:45.295Z,14.60
2018-09-25T10:00:19.058Z,14.60
2018-09-25T10:02:52.919Z,14.80
2018-09-25T10:05:26.798Z,14.90
2018-09-25T10:08:00.574Z,15.00
2018-09-25T10:10:34.471Z,15.20
2018-09-25T10:13:08.518Z,15.30
2018-09-25T10:15:42.316Z,15.40
2018-09-25T10:18:16.150Z,15.60
2018-09-25T10:20:49.918Z,15.90
2018-09-25T10:23:23.646Z,15.90
2018-09-25T10:25:57.461Z,16.00
2018-09-25T10:28:31.469Z,16.10
2018-09-25T10:31:05.165Z,16.30
2018-09-25T10:33:38.889Z,16.40
2018-09-25T10:36:12.720Z,16.40
2018-09-25T10:38:46.481Z,16.50
2018-09-25T10:41:20.505Z,16.70
2018-09-25T10:43:54.130Z,16.70
2018-09-25T10:46:27.934Z,16.90
2018-09-25T10:49:01.894Z,17.00
2018-09-25T10:51:35.644Z,17.10
2018-09-25T10:54:09.331Z,17.30
2018-09-25T10:56:43.247Z,17.30
2018-09-25T10:59:17.044Z,17.30
2018-09-25T11:01:50.786Z,17.30
2018-09-25T11:04:24.630Z,17.40
2018-09-25T11:06:58.382Z,17.40
2018-09-25T11:09:32.351Z,17.50
2018-09-25T11:12:06.226Z,17.70
2018-09-25T11:14:40.108Z,18.00
2018-09-25T11:17:13.998Z,18.30
2018-09-25T11:19:47.903Z,18.30
2018-09-25T11:22:21.821Z,18.50
2018-09-25T11:24:55.481Z,18.80
2018-09-25T11:27:29.117Z,18.90
2018-09-25T11:30:02.845Z,18.90
2018-09-25T11:32:36.684Z,19.00
2018-09-25T11:35:10.714Z,19.20
2018-09-25T11:37:44.373Z,19.40
2018-09-25T11:40:18.150Z,19.50
2018-09-25T11:42:52.153Z,19.80
2018-09-25T11:45:25.958Z,19.90
2018-09-25T11:47:59.732Z,19.90
2018-09-25T11:50:33.583Z,20.00
2018-09-25T11:53:07.285Z,20.00
2018-09-25T11:55:41.152Z,20.00
2018-09-25T11:58:14.855Z,20.10
2018-09-25T12:00:48.569Z,20.10
2018-09-25T12:03:22.316Z,20.20
2018-09-25T12:05:56.148Z,20.20
2018-09-25T12:08:29.942Z,20.30
2018-09-25T12:11:03.688Z,20.40
2018-09-25T12:13:37.375Z,20.30
2018-09-25T12:16:11.182Z,20.30
2018-09-25T12:18:44.982Z,20.30
2018-09-25T12:21:18.950Z,20.30
2018-09-25T12:23:52.639Z,20.40
2018-09-25T12:26:26.387Z,20.50
2018-09-25T12:29:00.191Z,20.60
2018-09-25T12:31:34.102Z,20.70
2018-09-25T12:34:07.798Z,20.90
2018-09-25T12:36:41.716Z,21.20
2018-09-25T12:39:15.515Z,21.30
2018-09-25T12:41:49.414Z,21.20
2018-09-25T12:44:23.378Z,21.20
2018-09-25T12:46:57.254Z,21.20
2018-09-25T12:49:31.289Z,21.40
2018-09-25T12:52:05.038Z,21.50
2018-09-25T12:54:38.668Z,21.50
2018-09-25T12:57:12.327Z,21.60
2018-09-25T12:59:46.039Z,21.70
2018-09-25T13:02:19.730Z,21.80
2018-09-25T13:04:53.372Z,21.80
2018-09-25T13:07:27.194Z,21.70
2018-09-25T13:10:00.986Z,21.60
2018-09-25T13:12:34.787Z,21.50
2018-09-25T13:15:08.643Z,21.60
2018-09-25T13:17:42.358Z,21.70
2018-09-25T13:20:16.111Z,21.70
2018-09-25T13:22:49.782Z,21.70
2018-09-25T13:25:23.639Z,21.80
2018-09-25T13:27:57.424Z,21.70
2018-09-25T13:30:31.199Z,21.50
2018-09-25T13:33:04.966Z,21.40
2018-09-25T13:35:38.809Z,21.40
2018-09-25T13:38:12.540Z,21.50
2018-09-25T13:40:46.309Z,21.40
2018-09-25T13:43:20.140Z,21.40
2018-09-25T13:45:53.829Z,21.40
2018-09-25T13:48:27.813Z,21.50
2018-09-25T13:51:01.521Z,21.40
2018-09-25T13:53:35.258Z,21.40
2018-09-25T13:56:09.214Z,21.40
2018-09-25T13:58:42.859Z,21.40
2018-09-25T14:01:16.732Z,21.30
2018-09-25T14:03:50.474Z,21.30
2018-09-25T14:06:24.258Z,21.20
2018-09-25T14:08:58.068Z,21.20
2018-09-25T14:11:31.887Z,21.10
2018-09-25T14:14:05.580Z,21.10
2018-09-25T14:16:39.343Z,21.10
2018-09-25T14:19:13.262Z,21.20
2018-09-25T14:21:46.821Z,21.20
2018-09-25T14:24:20.639Z,21.20
2018-09-25T14:26:54.494Z,21.20
2018-09-25T14:29:28.295Z,21.10
2018-09-25T14:32:02.106Z,21.00
2018-09-25T14:34:36.144Z,20.90
2018-09-25T14:37:09.745Z,20.80
2018-09-25T14:39:43.335Z,20.80
2018-09-25T14:42:17.290Z,20.80
2018-09-25T14:44:51.358Z,20.70
2018-09-25T14:47:24.942Z,20.70
2018-09-25T14:49:58.574Z,20.60
2018-09-25T14:52:32.443Z,20.60
2018-09-25T14:55:06.315Z,20.50
2018-09-25T14:57:40.014Z,20.40
2018-09-25T15:00:13.979Z,20.40
2018-09-25T15:02:47.787Z,20.30
2018-09-25T15:05:21.609Z,20.20
2018-09-25T15:07:55.502Z,20.00
2018-09-25T15:10:29.504Z,19.80
2018-09-25T15:13:03.160Z,19.70
2018-09-25T15:15:36.897Z,19.70
2018-09-25T15:18:10.713Z,19.60
2018-09-25T15:20:44.578Z,19.50
2018-09-25T15:23:18.386Z,19.40
2018-09-25T15:25:52.139Z,19.30
2018-09-25T15:28:25.803Z,19.20
2018-09-25T15:30:59.731Z,19.10
2018-09-25T15:33:33.517Z,18.90
2018-09-25T15:36:07.337Z,18.80
2018-09-25T15:38:41.031Z,18.70
2018-09-25T15:41:14.881Z,18.60
2018-09-25T15:43:48.602Z,18.50
2018-09-25T15:46:22.468Z,18.50
2018-09-25T15:48:56.475Z,18.30
2018-09-25T15:51:30.418Z,18.20
2018-09-25T15:54:04.200Z,18.20
2018-09-25T15:56:37.835Z,18.10
2018-09-25T15:59:11.607Z,18.00
2018-09-25T16:01:45.417Z,17.80
2018-09-25T16:04:19.243Z,17.70
2018-09-25T16:06:53.023Z,17.70
2018-09-25T16:09:26.841Z,17.70
2018-09-25T16:12:00.641Z,17.60
2018-09-25T16:14:34.409Z,17.60
2018-09-25T16:17:08.193Z,17.50
2018-09-25T16:19:42.167Z,17.50
2018-09-25T16:22:15.855Z,17.40
2018-09-25T16:24:49.789Z,17.40
2018-09-25T16:27:23.599Z,17.40
2018-09-25T16:29:57.417Z,17.30
2018-09-25T16:32:31.318Z,17.30
2018-09-25T16:35:05.239Z,17.30
2018-09-25T16:37:39.122Z,17.20
2018-09-25T16:40:13.017Z,17.20
2018-09-25T16:42:46.814Z,17.10
2018-09-25T16:45:20.758Z,17.10
2018-09-25T16:47:54.595Z,17.00
2018-09-25T16:50:28.321Z,17.00
2018-09-25T16:53:02.021Z,16.90
2018-09-25T16:55:36.016Z,16.90
2018-09-25T16:58:09.778Z,16.80
2018-09-25T17:00:43.490Z,16.80
2018-09-25T17:03:17.531Z,16.70
2018-09-25T17:05:51.250Z,16.60
2018-09-25T17:08:24.910Z,16.60
2018-09-25T17:10:58.609Z,16.50
2018-09-25T17:13:32.332Z,16.50
2018-09-25T17:16:06.220Z,16.40
2018-09-25T17:18:39.971Z,16.40
2018-09-25T17:21:13.698Z,16.30
2018-09-25T17:23:47.384Z,16.30
2018-09-25T17:26:21.223Z,16.30
2018-09-25T17:28:55.006Z,16.20
2018-09-25T17:31:28.806Z,16.20
2018-09-25T17:34:02.563Z,16.10
2018-09-25T17:36:36.300Z,16.10
2018-09-25T17:39:12.573Z,16.10
2018-09-25T17:41:47.015Z,16.10
2018-09-25T17:44:20.771Z,16.00
2018-09-25T17:46:54.625Z,15.90
2018-09-25T17:49:28.408Z,15.90
2018-09-25T17:52:02.315Z,15.80
2018-09-25T17:54:36.163Z,15.80
2018-09-25T17:57:10.175Z,16.10
2018-09-25T17:59:44.030Z,16.50
2018-09-25T18:02:17.831Z,16.80
2018-09-25T18:04:51.735Z,16.90
2018-09-25T18:07:25.575Z,17.00
2018-09-25T18:09:59.440Z,17.10
2018-09-25T18:12:33.358Z,17.20
2018-09-25T18:15:07.421Z,17.20
2018-09-25T18:17:41.279Z,17.30
2018-09-25T18:20:15.219Z,17.30
2018-09-25T18:22:49.247Z,17.30
2018-09-25T18:25:23.264Z,17.40
2018-09-25T18:27:57.213Z,17.40
2018-09-25T18:30:31.091Z,17.40
2018-09-25T18:33:04.778Z,17.40
2018-09-25T18:35:38.470Z,17.40
2018-09-25T18:38:12.435Z,17.40
2018-09-25T18:40:46.386Z,17.40
2018-09-25T18:43:20.298Z,17.40
2018-09-25T18:45:54.055Z,17.50
2018-09-25T18:48:27.834Z,17.40
2018-09-25T18:51:01.873Z,17.40
2018-09-25T18:53:35.830Z,17.30
2018-09-25T18:56:09.438Z,17.30
2018-09-25T18:58:43.465Z,17.30
2018-09-25T19:01:17.410Z,17.30
2018-09-25T19:03:51.415Z,17.30
2018-09-25T19:06:25.267Z,17.30
2018-09-25T19:08:59.033Z,17.30
2018-09-25T19:11:32.816Z,17.30
2018-09-25T19:14:06.645Z,17.30
2018-09-25T19:16:40.339Z,17.20
2018-09-25T19:19:14.144Z,17.10
2018-09-25T19:21:47.968Z,17.00
2018-09-25T19:24:21.812Z,16.40
2018-09-25T19:26:55.636Z,15.90
2018-09-25T19:29:29.721Z,15.50
2018-09-25T19:32:03.702Z,15.10
2018-09-25T19:34:37.485Z,14.90
2018-09-25T19:37:11.437Z,14.70
2018-09-25T19:39:45.276Z,14.50
2018-09-25T19:42:19.256Z,14.30
2018-09-25T19:44:53.127Z,14.20
2018-09-25T19:47:26.916Z,14.00
2018-09-25T19:50:00.643Z,13.90
2018-09-25T19:52:34.559Z,13.90
2018-09-25T19:55:08.498Z,13.70
2018-09-25T19:57:42.221Z,13.60
2018-09-25T20:00:16.114Z,13.50
2018-09-25T20:02:49.868Z,13.50
2018-09-25T20:05:23.837Z,13.40
2018-09-25T20:07:57.734Z,13.30
2018-09-25T20:10:31.748Z,13.20
2018-09-25T20:13:05.645Z,13.20
2018-09-25T20:15:39.595Z,13.10
2018-09-25T20:18:13.549Z,13.10
2018-09-25T20:20:47.319Z,13.00
2018-09-25T20:23:21.342Z,12.90
2018-09-25T20:25:55.015Z,12.90
2018-09-25T20:28:28.722Z,12.80
2018-09-25T20:31:03.356Z,12.80
2018-09-25T20:33:37.189Z,12.70
2018-09-25T20:36:11.029Z,12.70
2018-09-25T20:38:44.842Z,12.70
2018-09-25T20:41:18.634Z,12.70
2018-09-25T20:43:52.458Z,12.60
2018-09-25T20:46:26.342Z,12.60
2018-09-25T20:49:00.262Z,12.60
2018-09-25T20:51:35.137Z,12.50
2018-09-25T20:54:09.049Z,12.50
2018-09-25T20:56:42.838Z,12.40
2018-09-25T20:59:16.557Z,12.40
2018-09-25T21:01:50.244Z,12.30
2018-09-25T21:04:23.938Z,12.30
2018-09-25T21:06:57.832Z,12.30
2018-09-25T21:09:31.661Z,12.30
2018-09-25T21:12:05.468Z,12.30
2018-09-25T21:14:39.565Z,12.30
2018-09-25T21:17:13.392Z,12.30
2018-09-25T21:19:47.174Z,12.30
2018-09-25T21:22:20.982Z,12.20
2018-09-25T21:24:54.698Z,12.20
2018-09-25T21:27:28.493Z,12.20
2018-09-25T21:30:02.269Z,12.20
2018-09-25T21:32:36.200Z,12.10
2018-09-25T21:35:10.157Z,12.10
2018-09-25T21:37:43.955Z,12.10
2018-09-25T21:40:17.804Z,12.10
2018-09-25T21:42:51.806Z,12.10
2018-09-25T21:45:25.755Z,12.10
2018-09-25T21:47:59.670Z,12.10
2018-09-25T21:50:33.464Z,12.10
2018-09-25T21:53:07.171Z,12.00
2018-09-25T21:55:40.768Z,12.00
2018-09-25T21:58:14.552Z,12.00
2018-09-25T22:00:48.254Z,12.00
2018-09-25T22:03:22.013Z,12.00
2018-09-25T22:05:55.850Z,12.00
2018-09-25T22:08:29.577Z,11.90
2018-09-25T22:11:03.385Z,11.90
2018-09-25T22:13:37.195Z,11.90
2018-09-25T22:16:11.119Z,11.90
2018-09-25T22:18:44.873Z,11.80
2018-09-25T22:21:18.755Z,11.80
2018-09-25T22:23:52.372Z,11.80
2018-09-25T22:26:26.290Z,11.70
2018-09-25T22:29:00.225Z,11.70
2018-09-25T22:31:34.044Z,11.70
2018-09-25T22:34:07.988Z,11.60
2018-09-25T22:36:41.760Z,11.60
2018-09-25T22:39:15.871Z,11.50
2018-09-25T22:41:49.410Z,11.40
2018-09-25T22:44:23.196Z,11.40
2018-09-25T22:46:56.786Z,11.30
2018-09-25T22:49:30.675Z,11.30
2018-09-25T22:52:04.335Z,11.20
2018-09-25T22:54:38.044Z,11.20
2018-09-25T22:57:11.851Z,11.20
2018-09-25T22:59:45.658Z,11.10
2018-09-25T23:02:19.321Z,11.10
2018-09-25T23:04:53.063Z,11.10
2018-09-25T23:07:26.943Z,11.00
2018-09-25T23:10:00.848Z,10.90
2018-09-25T23:12:34.483Z,10.90
2018-09-25T23:15:08.262Z,10.90
2018-09-25T23:17:41.978Z,10.80
2018-09-25T23:20:15.591Z,10.80
2018-09-25T23:22:49.475Z,10.70
2018-09-25T23:25:23.175Z,10.70
2018-09-25T23:27:57.034Z,10.70
2018-09-25T23:30:30.865Z,10.70
2018-09-25T23:33:04.592Z,10.60
2018-09-25T23:35:38.296Z,10.60
2018-09-25T23:38:12.353Z,10.50
2018-09-25T23:41:49.481Z,10.50
2018-09-25T23:44:22.102Z,10.50
2018-09-25T23:46:54.747Z,10.40
2018-09-25T23:49:42.998Z,10.40
2018-09-25T23:52:15.775Z,10.30
2018-09-25T23:54:50.914Z,10.30
2018-09-25T23:57:23.323Z,10.30
